Time;durP1;ratioP1;P1;durP2;ratioP2;P2;SDS_P1;SDS_P2;PMS_P1;PMS_P2;Temp;Humidity;BMP_temperature;BMP_pressure;BME280_temperature;BME280_humidity;BME280_pressure;Samples;Min_cycle;Max_cycle;Signal;HPM_P1;HPM_P2
2022/12/28 00:01:23;;;;;;;8.00;5.03;;;;;;;;;;4999136;28;20664;-80
2022/12/28 00:04:27;;;;;;;8.00;5.60;;;;;;;;;;5000072;28;21147;-80
2022/12/28 00:07:31;;;;;;;8.57;5.73;;;;;;;;;;4999966;28;20549;-80
2022/12/28 00:10:35;;;;;;;10.50;6.20;;;;;;;;;;4978282;28;20922;-79
2022/12/28 00:13:39;;;;;;;8.50;5.67;;;;;;;;;;4999089;28;20530;-80
2022/12/28 00:16:43;;;;;;;11.03;6.30;;;;;;;;;;4987447;28;20626;-80
2022/12/28 00:19:59;;;;;;;9.83;6.57;;;;;;;;;;4987292;28;20545;-80
2022/12/28 00:23:05;;;;;;;9.13;5.80;;;;;;;;;;4987351;28;20617;-79
2022/12/28 00:26:11;;;;;;;9.97;5.97;;;;;;;;;;4998035;28;20542;-79
2022/12/28 00:29:16;;;;;;;7.63;5.37;;;;;;;;;;4987121;28;20546;-79
2022/12/28 00:32:20;;;;;;;8.97;6.40;;;;;;;;;;4998272;28;20617;-79
2022/12/28 00:35:24;;;;;;;9.33;5.70;;;;;;;;;;4987380;28;20554;-77
2022/12/28 00:38:30;;;;;;;10.27;5.87;;;;;;;;;;4986775;28;20538;-78
2022/12/28 00:41:34;;;;;;;9.00;5.57;;;;;;;;;;4975170;28;20656;-79
2022/12/28 00:44:39;;;;;;;7.20;5.20;;;;;;;;;;4987269;28;21155;-80
2022/12/28 00:47:42;;;;;;;9.53;5.77;;;;;;;;;;4975224;28;20608;-78
2022/12/28 00:50:49;;;;;;;7.00;5.07;;;;;;;;;;4986606;28;20545;-78
2022/12/28 00:53:54;;;;;;;9.70;4.97;;;;;;;;;;4975399;28;20538;-79
2022/12/28 00:56:58;;;;;;;8.07;5.07;;;;;;;;;;4985772;28;20554;-79
2022/12/28 01:00:03;;;;;;;7.07;5.13;;;;;;;;;;4987119;28;20549;-79
2022/12/28 01:03:07;;;;;;;7.53;5.17;;;;;;;;;;4986953;28;20624;-79
2022/12/28 01:06:15;;;;;;;8.30;4.93;;;;;;;;;;4986196;28;20613;-80
2022/12/28 01:09:19;;;;;;;8.63;4.57;;;;;;;;;;4986304;28;20546;-79
2022/12/28 01:12:23;;;;;;;7.20;4.30;;;;;;;;;;4997972;28;20625;-79
2022/12/28 01:15:27;;;;;;;7.60;4.77;;;;;;;;;;4997693;28;20554;-77
2022/12/28 01:18:31;;;;;;;10.23;5.10;;;;;;;;;;4975711;28;20922;-78
2022/12/28 01:21:36;;;;;;;6.53;5.17;;;;;;;;;;4986281;28;20669;-80
2022/12/28 01:24:40;;;;;;;8.17;5.17;;;;;;;;;;4986046;28;20546;-79
2022/12/28 01:27:44;;;;;;;8.63;5.10;;;;;;;;;;4985666;28;21077;-78
2022/12/28 01:30:49;;;;;;;10.93;5.43;;;;;;;;;;4974853;28;20542;-79
2022/12/28 01:33:54;;;;;;;8.47;5.67;;;;;;;;;;4985812;28;20882;-79
2022/12/28 01:36:58;;;;;;;9.37;5.00;;;;;;;;;;4985662;28;20542;-78
2022/12/28 01:40:04;;;;;;;7.73;5.50;;;;;;;;;;4974473;28;20541;-79
2022/12/28 01:43:13;;;;;;;7.47;4.83;;;;;;;;;;4974527;28;20613;-79
2022/12/28 01:46:22;;;;;;;9.07;6.03;;;;;;;;;;4974753;28;20549;-79
2022/12/28 01:49:39;;;;;;;9.13;5.10;;;;;;;;;;4996866;28;20605;-79
2022/12/28 01:52:51;;;;;;;8.63;5.60;;;;;;;;;;4974405;28;20629;-79
2022/12/28 01:55:56;;;;;;;7.93;5.70;;;;;;;;;;4985655;28;20550;-79
2022/12/28 01:59:00;;;;;;;11.13;5.67;;;;;;;;;;4973943;28;20542;-80
2022/12/28 02:02:04;;;;;;;8.43;4.70;;;;;;;;;;4995828;28;20656;-79
2022/12/28 02:05:08;;;;;;;7.37;4.70;;;;;;;;;;4996293;28;20620;-78
2022/12/28 02:08:20;;;;;;;7.47;5.10;;;;;;;;;;4984167;28;20541;-79
2022/12/28 02:11:25;;;;;;;10.33;5.07;;;;;;;;;;4984704;28;20621;-79
2022/12/28 02:14:30;;;;;;;8.90;4.90;;;;;;;;;;4985095;28;20549;-80
2022/12/28 02:17:35;;;;;;;8.97;4.93;;;;;;;;;;4972893;28;20538;-79
2022/12/28 02:21:08;;;;;;;9.23;4.87;;;;;;;;;;4973306;28;20649;-79
2022/12/28 02:24:35;;;;;;;10.47;4.97;;;;;;;;;;4974015;28;20545;-80
2022/12/28 02:28:09;;;;;;;5.63;4.27;;;;;;;;;;4995629;28;20546;-78
2022/12/28 02:31:22;;;;;;;8.20;4.97;;;;;;;;;;4973089;28;20613;-80
2022/12/28 02:34:32;;;;;;;8.67;4.87;;;;;;;;;;4983906;28;20546;-80
2022/12/28 02:37:50;;;;;;;10.33;4.73;;;;;;;;;;4995394;28;21076;-79
2022/12/28 02:41:07;;;;;;;6.70;4.63;;;;;;;;;;4996634;28;20590;-80
2022/12/28 02:50:04;;;;;;;8.73;5.53;;;;;;;;;;4984195;28;21077;-79
2022/12/28 02:51:13;;;;;;;8.87;5.70;;;;;;;;;;4994808;28;20617;-79
2022/12/28 02:58:33;;;;;;;7.63;5.27;;;;;;;;;;4984087;28;20537;-80
2022/12/28 03:02:01;;;;;;;6.07;4.73;;;;;;;;;;4984162;28;20661;-79
2022/12/28 03:09:29;;;;;;;7.33;4.40;;;;;;;;;;4995102;28;20554;-78
2022/12/28 03:12:45;;;;;;;7.70;4.83;;;;;;;;;;4972781;28;21183;-78
2022/12/28 03:15:50;;;;;;;7.90;4.23;;;;;;;;;;4973213;28;20542;-79
2022/12/28 03:32:46;;;;;;;3.83;3.00;;;;;;;;;;4998775;28;21163;-78
2022/12/28 03:36:16;;;;;;;4.37;3.07;;;;;;;;;;4986927;28;20561;-79
2022/12/28 03:39:37;;;;;;;4.17;3.43;;;;;;;;;;4987535;28;20541;-78
2022/12/28 03:46:40;;;;;;;4.60;2.90;;;;;;;;;;4994454;28;21146;-77
2022/12/28 03:49:44;;;;;;;3.77;2.90;;;;;;;;;;4995308;28;21084;-77
2022/12/28 03:52:50;;;;;;;3.60;2.53;;;;;;;;;;4994955;28;20627;-78
2022/12/28 03:56:22;;;;;;;4.80;3.30;;;;;;;;;;5006248;28;20596;-77
2022/12/28 03:59:28;;;;;;;3.50;2.57;;;;;;;;;;4994752;28;20552;-78
2022/12/28 04:02:33;;;;;;;3.50;2.50;;;;;;;;;;5005988;28;20659;-78
2022/12/28 04:05:36;;;;;;;2.93;2.40;;;;;;;;;;4994328;28;20624;-78
2022/12/28 04:08:42;;;;;;;3.23;2.50;;;;;;;;;;5018412;28;20596;-77
2022/12/28 04:11:47;;;;;;;4.30;2.83;;;;;;;;;;5005631;28;20627;-78
2022/12/28 04:14:59;;;;;;;4.03;2.93;;;;;;;;;;4994457;28;20553;-78
2022/12/28 04:18:03;;;;;;;5.23;3.23;;;;;;;;;;4994824;28;20604;-78
2022/12/28 04:21:09;;;;;;;4.37;3.10;;;;;;;;;;4995122;28;20655;-78
2022/12/28 04:24:17;;;;;;;4.03;2.97;;;;;;;;;;5005805;28;20885;-78
2022/12/28 04:27:22;;;;;;;4.33;3.23;;;;;;;;;;4994796;28;20537;-79
2022/12/28 04:30:28;;;;;;;4.17;3.20;;;;;;;;;;5016212;28;20605;-79
2022/12/28 04:33:33;;;;;;;4.07;3.10;;;;;;;;;;5005176;28;20604;-78
2022/12/28 04:36:41;;;;;;;4.10;2.90;;;;;;;;;;4994080;28;20553;-77
2022/12/28 04:39:50;;;;;;;4.63;3.10;;;;;;;;;;5016657;28;20588;-78
2022/12/28 04:42:54;;;;;;;2.97;2.57;;;;;;;;;;5004795;28;20660;-77
2022/12/28 04:46:11;;;;;;;3.50;2.70;;;;;;;;;;5005107;28;20592;-78
2022/12/28 04:49:15;;;;;;;5.03;2.57;;;;;;;;;;5016846;28;20545;-78
2022/12/28 04:52:21;;;;;;;4.57;2.70;;;;;;;;;;5005981;28;20620;-79
2022/12/28 04:55:25;;;;;;;3.07;2.73;;;;;;;;;;4994569;28;20549;-78
2022/12/28 04:58:29;;;;;;;2.90;2.53;;;;;;;;;;4994245;28;20557;-79
2022/12/28 05:01:33;;;;;;;4.27;3.10;;;;;;;;;;5016547;28;20655;-78
2022/12/28 05:04:37;;;;;;;4.67;3.20;;;;;;;;;;5005659;28;20612;-78
2022/12/28 05:07:42;;;;;;;4.37;3.13;;;;;;;;;;4993642;28;20545;-78
2022/12/28 05:10:45;;;;;;;4.50;2.80;;;;;;;;;;5017089;28;21076;-77
2022/12/28 05:13:50;;;;;;;3.23;2.07;;;;;;;;;;4993564;28;20536;-78
2022/12/28 05:16:55;;;;;;;2.83;2.47;;;;;;;;;;5005435;28;21083;-78
2022/12/28 05:19:59;;;;;;;3.20;2.23;;;;;;;;;;4994220;28;20873;-78
2022/12/28 05:23:03;;;;;;;3.70;2.50;;;;;;;;;;5004482;28;20651;-78
2022/12/28 05:26:11;;;;;;;4.17;2.40;;;;;;;;;;5016354;28;20541;-78
2022/12/28 05:29:15;;;;;;;2.57;1.97;;;;;;;;;;5004752;28;20545;-78
2022/12/28 05:32:19;;;;;;;3.13;2.30;;;;;;;;;;5004400;28;20623;-79
2022/12/28 05:35:23;;;;;;;2.67;2.17;;;;;;;;;;4993548;28;20545;-79
2022/12/28 05:38:27;;;;;;;2.43;2.10;;;;;;;;;;4994161;28;20603;-79
2022/12/28 05:41:31;;;;;;;3.43;2.20;;;;;;;;;;5004781;28;20660;-79
2022/12/28 05:44:35;;;;;;;2.00;1.70;;;;;;;;;;4982828;28;20553;-79
2022/12/28 05:47:39;;;;;;;4.30;2.60;;;;;;;;;;5007670;28;20540;-79
2022/12/28 05:50:44;;;;;;;4.47;2.70;;;;;;;;;;5018809;28;20608;-79
2022/12/28 05:53:48;;;;;;;4.90;2.53;;;;;;;;;;5006342;28;20596;-79
2022/12/28 05:56:53;;;;;;;3.87;2.70;;;;;;;;;;4995312;28;20549;-79
2022/12/28 05:59:57;;;;;;;4.53;2.50;;;;;;;;;;4995536;28;20549;-81
2022/12/28 06:03:01;;;;;;;3.30;2.50;;;;;;;;;;4996161;28;20663;-79
2022/12/28 06:06:17;;;;;;;3.20;2.50;;;;;;;;;;5023189;28;20623;-79
2022/12/28 06:09:21;;;;;;;3.10;2.20;;;;;;;;;;4995437;28;20605;-79
2022/12/28 06:12:25;;;;;;;2.00;1.80;;;;;;;;;;5006890;28;20624;-79
2022/12/28 06:15:29;;;;;;;2.83;1.67;;;;;;;;;;5019364;28;21064;-80
2022/12/28 06:18:35;;;;;;;2.10;1.90;;;;;;;;;;4996964;28;20540;-79
2022/12/28 06:21:40;;;;;;;2.37;1.73;;;;;;;;;;5006989;28;20643;-78
2022/12/28 06:24:44;;;;;;;2.67;1.93;;;;;;;;;;4995967;28;20878;-78
2022/12/28 06:27:48;;;;;;;2.40;1.90;;;;;;;;;;4996474;28;20549;-79
2022/12/28 06:31:00;;;;;;;2.83;1.90;;;;;;;;;;5006106;28;20556;-79
2022/12/28 06:34:07;;;;;;;1.80;1.57;;;;;;;;;;5005940;28;20537;-79
2022/12/28 06:37:12;;;;;;;2.83;1.93;;;;;;;;;;5005649;28;20190;-79
2022/12/28 06:40:16;;;;;;;2.50;1.80;;;;;;;;;;4994741;28;20565;-78
2022/12/28 06:43:24;;;;;;;2.93;2.07;;;;;;;;;;5011732;28;20597;-79
2022/12/28 06:46:36;;;;;;;3.30;2.27;;;;;;;;;;4996459;28;20550;-79
2022/12/28 06:49:40;;;;;;;4.60;2.17;;;;;;;;;;5005924;28;20545;-79
2022/12/28 06:52:44;;;;;;;2.67;2.20;;;;;;;;;;4995121;28;20620;-79
2022/12/28 06:55:58;;;;;;;2.83;2.03;;;;;;;;;;5022308;28;20173;-79
2022/12/28 06:59:03;;;;;;;4.03;3.50;;;;;;;;;;5021579;28;20557;-78
2022/12/28 07:02:08;;;;;;;4.53;2.97;;;;;;;;;;5009527;28;20659;-79
2022/12/28 07:05:12;;;;;;;10.20;7.67;;;;;;;;;;4998626;28;20608;-79
2022/12/28 07:08:17;;;;;;;11.00;7.33;;;;;;;;;;5009974;28;20178;-78
2022/12/28 07:11:21;;;;;;;4.30;3.77;;;;;;;;;;5009017;28;21206;-78
2022/12/28 07:14:26;;;;;;;4.87;3.77;;;;;;;;;;4998689;28;20620;-78
2022/12/28 07:17:30;;;;;;;6.73;4.13;;;;;;;;;;5010388;28;20541;-79
2022/12/28 07:20:34;;;;;;;3.87;2.70;;;;;;;;;;4997497;28;21162;-77
2022/12/28 07:23:39;;;;;;;3.33;2.10;;;;;;;;;;4998036;28;20651;-78
2022/12/28 07:26:43;;;;;;;2.67;2.30;;;;;;;;;;5009009;28;20549;-78
2022/12/28 07:29:47;;;;;;;2.27;1.80;;;;;;;;;;5008857;28;20549;-77
2022/12/28 07:32:51;;;;;;;3.30;1.90;;;;;;;;;;5007893;28;20553;-76
2022/12/28 07:35:57;;;;;;;3.07;1.70;;;;;;;;;;5018779;28;20557;-77
2022/12/28 07:39:01;;;;;;;2.73;1.90;;;;;;;;;;5007286;28;20181;-76
2022/12/28 07:42:09;;;;;;;2.63;1.70;;;;;;;;;;5005818;28;20225;-77
2022/12/28 07:45:14;;;;;;;3.47;2.47;;;;;;;;;;5006619;28;20197;-78
2022/12/28 07:48:18;;;;;;;3.60;2.53;;;;;;;;;;5018495;28;20201;-78
2022/12/28 07:51:27;;;;;;;5.47;4.77;;;;;;;;;;4996152;28;20667;-78
2022/12/28 07:54:31;;;;;;;5.30;2.90;;;;;;;;;;5007439;28;20177;-77
2022/12/28 07:57:35;;;;;;;6.60;4.77;;;;;;;;;;5007512;28;20499;-78
2022/12/28 08:00:39;;;;;;;1.77;1.20;;;;;;;;;;4996243;28;20201;-77
2022/12/28 08:03:44;;;;;;;1.80;1.40;;;;;;;;;;5018350;28;20221;-78
2022/12/28 08:06:48;;;;;;;2.67;2.40;;;;;;;;;;5017814;28;20201;-78
2022/12/28 08:09:51;;;;;;;2.17;1.50;;;;;;;;;;5007638;28;20201;-78
2022/12/28 08:12:58;;;;;;;4.30;3.13;;;;;;;;;;5020855;28;20680;-77
2022/12/28 08:16:03;;;;;;;7.13;3.70;;;;;;;;;;4997495;28;20177;-77
2022/12/28 08:19:09;;;;;;;19.40;7.77;;;;;;;;;;5008304;28;20177;-78
2022/12/28 08:22:13;;;;;;;4.77;2.03;;;;;;;;;;5016179;28;20213;-77
2022/12/28 08:25:17;;;;;;;125.03;56.77;;;;;;;;;;5016303;28;20177;-77
2022/12/28 08:28:21;;;;;;;26.87;20.33;;;;;;;;;;5005096;28;20672;-78
2022/12/28 08:31:28;;;;;;;34.37;21.03;;;;;;;;;;5007496;28;20586;-78
2022/12/28 08:34:32;;;;;;;41.77;22.00;;;;;;;;;;5007527;28;20178;-78
2022/12/28 08:37:37;;;;;;;14.47;9.67;;;;;;;;;;5007895;28;20188;-77
2022/12/28 08:40:41;;;;;;;7.77;5.87;;;;;;;;;;5018189;28;20181;-77
2022/12/28 08:43:45;;;;;;;7.73;7.03;;;;;;;;;;5007383;28;20202;-78
2022/12/28 08:46:50;;;;;;;11.53;8.90;;;;;;;;;;4996853;28;20213;-78
2022/12/28 08:49:54;;;;;;;3.40;2.13;;;;;;;;;;5007891;28;20197;-78
2022/12/28 08:52:58;;;;;;;17.50;8.27;;;;;;;;;;4996405;28;20213;-79
2022/12/28 08:56:11;;;;;;;10.23;6.40;;;;;;;;;;5007898;28;20633;-78
2022/12/28 08:59:17;;;;;;;4.83;2.33;;;;;;;;;;5007229;28;20197;-78
2022/12/28 09:02:22;;;;;;;11.23;6.60;;;;;;;;;;5019352;28;20559;-79
2022/12/28 09:05:26;;;;;;;4.07;2.63;;;;;;;;;;5017854;28;20205;-79
2022/12/28 09:08:30;;;;;;;9.93;5.93;;;;;;;;;;5007423;28;20189;-78
2022/12/28 09:11:36;;;;;;;3.47;1.60;;;;;;;;;;5007169;28;20217;-78
2022/12/28 09:14:40;;;;;;;3.50;2.73;;;;;;;;;;4995460;28;20193;-78
2022/12/28 09:17:44;;;;;;;5.00;2.10;;;;;;;;;;5007256;28;20177;-79
2022/12/28 09:20:49;;;;;;;6.03;5.43;;;;;;;;;;5018911;28;20205;-79
2022/12/28 09:23:53;;;;;;;3.30;2.03;;;;;;;;;;5006919;28;20684;-77
2022/12/28 09:26:57;;;;;;;2.30;1.90;;;;;;;;;;4996150;28;20182;-78
2022/12/28 09:30:02;;;;;;;3.40;3.10;;;;;;;;;;5007211;28;20177;-78
2022/12/28 09:36:35;;;;;;;2.57;1.30;;;;;;;;;;4996207;28;20535;-78
2022/12/28 09:39:39;;;;;;;2.57;1.67;;;;;;;;;;4995724;28;20182;-78
2022/12/28 09:42:43;;;;;;;1.33;1.10;;;;;;;;;;5006571;28;20221;-78
2022/12/28 09:45:47;;;;;;;2.03;1.00;;;;;;;;;;4995306;28;20173;-78
2022/12/28 09:48:56;;;;;;;10.83;7.17;;;;;;;;;;4995891;28;20514;-78
2022/12/28 09:52:25;;;;;;;18.57;9.67;;;;;;;;;;5006183;28;20569;-77
2022/12/28 09:55:37;;;;;;;64.03;34.03;;;;;;;;;;4995529;28;20178;-77
2022/12/28 09:58:43;;;;;;;11.57;8.57;;;;;;;;;;4996183;28;20185;-78
2022/12/28 10:01:55;;;;;;;58.60;38.13;;;;;;;;;;5018425;28;20217;-78
2022/12/28 10:04:59;;;;;;;5.70;3.30;;;;;;;;;;5006313;28;20218;-77
2022/12/28 10:08:03;;;;;;;11.27;8.03;;;;;;;;;;5017127;28;20201;-78
2022/12/28 10:11:08;;;;;;;18.27;15.33;;;;;;;;;;4984110;28;20225;-78
2022/12/28 10:14:24;;;;;;;13.87;9.50;;;;;;;;;;5017719;28;20188;-79
2022/12/28 10:17:29;;;;;;;21.40;14.77;;;;;;;;;;5006292;28;20625;-79
2022/12/28 10:20:34;;;;;;;19.83;12.80;;;;;;;;;;5006112;28;20552;-78
2022/12/28 10:23:41;;;;;;;2.40;1.93;;;;;;;;;;4994735;28;20213;-78
2022/12/28 10:26:46;;;;;;;5.80;4.47;;;;;;;;;;4995078;28;20185;-78
2022/12/28 10:29:51;;;;;;;13.17;10.73;;;;;;;;;;5004690;28;20546;-79
2022/12/28 10:32:58;;;;;;;3.43;3.00;;;;;;;;;;5005298;28;20224;-79
2022/12/28 10:36:02;;;;;;;2.40;1.00;;;;;;;;;;4994730;28;20189;-77
2022/12/28 10:39:15;;;;;;;4.87;4.33;;;;;;;;;;5006295;28;20177;-78
2022/12/28 10:42:24;;;;;;;4.37;3.33;;;;;;;;;;5006002;28;20577;-77
2022/12/28 10:45:39;;;;;;;5.00;4.53;;;;;;;;;;4983365;28;20657;-78
2022/12/28 10:48:55;;;;;;;2.20;1.77;;;;;;;;;;4983164;28;20178;-77
2022/12/28 10:52:01;;;;;;;1.33;1.23;;;;;;;;;;5004450;28;20561;-78
2022/12/28 10:55:26;;;;;;;3.37;2.37;;;;;;;;;;4993377;28;20634;-78
2022/12/28 10:58:31;;;;;;;2.50;1.10;;;;;;;;;;4993106;28;20234;-78
2022/12/28 11:01:36;;;;;;;1.60;1.10;;;;;;;;;;5016379;28;20209;-78
2022/12/28 11:04:55;;;;;;;1.20;1.00;;;;;;;;;;5003581;28;20225;-76
2022/12/28 11:08:04;;;;;;;2.03;0.87;;;;;;;;;;5003870;28;20190;-78
2022/12/28 11:11:28;;;;;;;2.53;1.00;;;;;;;;;;5014896;28;21579;-76
2022/12/28 11:14:35;;;;;;;1.97;0.90;;;;;;;;;;5015041;28;20178;-78
2022/12/28 11:17:39;;;;;;;1.07;0.90;;;;;;;;;;5002308;28;20181;-77
2022/12/28 11:20:49;;;;;;;2.50;1.00;;;;;;;;;;4991317;28;20637;-77
2022/12/28 11:23:53;;;;;;;1.03;0.83;;;;;;;;;;4991354;28;20213;-79
2022/12/28 11:26:57;;;;;;;2.17;0.80;;;;;;;;;;5002871;28;20181;-76
2022/12/28 11:30:03;;;;;;;1.67;0.80;;;;;;;;;;5001080;28;20178;-77
2022/12/28 11:33:32;;;;;;;2.60;0.90;;;;;;;;;;4991467;28;20213;-78
2022/12/28 11:36:39;;;;;;;3.00;1.40;;;;;;;;;;5003028;28;20173;-78
2022/12/28 11:39:47;;;;;;;1.30;0.80;;;;;;;;;;4991998;28;20174;-77
2022/12/28 11:42:54;;;;;;;2.73;1.27;;;;;;;;;;4984559;28;20221;-76
2022/12/28 11:46:00;;;;;;;3.47;0.70;;;;;;;;;;5006458;28;20194;-78
2022/12/28 11:49:23;;;;;;;2.77;1.10;;;;;;;;;;4995409;28;20197;-78
2022/12/28 11:52:33;;;;;;;1.53;1.10;;;;;;;;;;5018336;28;20235;-76
2022/12/28 11:55:48;;;;;;;1.70;0.87;;;;;;;;;;4994408;28;20174;-77
2022/12/28 11:58:58;;;;;;;2.17;1.33;;;;;;;;;;4994892;28;20193;-77
2022/12/28 12:02:22;;;;;;;3.77;2.07;;;;;;;;;;5006037;28;20217;-77
2022/12/28 12:05:36;;;;;;;2.97;1.70;;;;;;;;;;4993949;28;20233;-77
2022/12/28 12:08:41;;;;;;;2.40;1.50;;;;;;;;;;4983382;28;20193;-78
2022/12/28 12:11:47;;;;;;;4.47;1.20;;;;;;;;;;4994560;28;20213;-77
2022/12/28 12:15:00;;;;;;;2.07;1.10;;;;;;;;;;5017571;28;20182;-78
2022/12/28 12:18:08;;;;;;;2.93;1.43;;;;;;;;;;5004463;28;20198;-77
2022/12/28 12:21:27;;;;;;;3.43;1.60;;;;;;;;;;5004572;28;20213;-78
2022/12/28 12:24:40;;;;;;;3.50;1.30;;;;;;;;;;5005856;28;20205;-78
2022/12/28 12:27:49;;;;;;;9.00;4.57;;;;;;;;;;4994431;28;20182;-77
2022/12/28 12:30:54;;;;;;;4.87;1.50;;;;;;;;;;5018252;28;20178;-77
2022/12/28 12:34:12;;;;;;;2.13;0.93;;;;;;;;;;5006347;28;20178;-78
2022/12/28 12:37:42;;;;;;;3.00;1.00;;;;;;;;;;5005743;28;20186;-78
2022/12/28 12:41:03;;;;;;;4.40;1.60;;;;;;;;;;4995570;28;20534;-76
2022/12/28 12:44:40;;;;;;;4.60;1.10;;;;;;;;;;5016959;28;20210;-77
2022/12/28 12:48:24;;;;;;;1.60;0.70;;;;;;;;;;5006249;28;20186;-78
2022/12/28 12:51:44;;;;;;;1.17;0.70;;;;;;;;;;5017160;28;20221;-78
2022/12/28 12:54:51;;;;;;;1.80;0.70;;;;;;;;;;4994859;28;20169;-77
2022/12/28 12:58:25;;;;;;;2.00;0.80;;;;;;;;;;5006263;28;20182;-77
2022/12/28 13:01:40;;;;;;;2.23;0.63;;;;;;;;;;5005501;28;20229;-78
2022/12/28 13:04:44;;;;;;;1.20;0.87;;;;;;;;;;4993857;28;20225;-77
2022/12/28 13:07:49;;;;;;;2.00;0.70;;;;;;;;;;5016920;28;20518;-78
2022/12/28 13:10:54;;;;;;;1.13;0.70;;;;;;;;;;5006003;28;20181;-78
2022/12/28 13:13:59;;;;;;;2.23;0.90;;;;;;;;;;4994632;28;20178;-77
2022/12/28 13:17:05;;;;;;;2.60;1.20;;;;;;;;;;5005405;28;20542;-76
2022/12/28 13:20:20;;;;;;;2.40;0.77;;;;;;;;;;4994581;28;20181;-78
2022/12/28 13:23:25;;;;;;;1.40;0.67;;;;;;;;;;4994523;28;20178;-78
2022/12/28 13:26:30;;;;;;;2.40;0.70;;;;;;;;;;5005359;28;20288;-78
2022/12/28 13:29:38;;;;;;;0.93;0.60;;;;;;;;;;5004222;28;20182;-80
2022/12/28 13:32:50;;;;;;;3.03;0.60;;;;;;;;;;5004670;28;20218;-80
2022/12/28 13:36:11;;;;;;;2.23;0.70;;;;;;;;;;4997097;28;20174;-80
2022/12/28 13:39:17;;;;;;;2.50;0.80;;;;;;;;;;5011450;28;20181;-80
2022/12/28 13:43:00;;;;;;;1.53;0.93;;;;;;;;;;5009621;28;20220;-81
2022/12/28 13:46:11;;;;;;;3.83;1.90;;;;;;;;;;5009877;28;20174;-79
2022/12/28 13:49:18;;;;;;;2.23;0.90;;;;;;;;;;5012166;28;20173;-78
2022/12/28 13:52:59;;;;;;;1.13;0.50;;;;;;;;;;5020028;28;20577;-78
2022/12/28 13:56:06;;;;;;;1.60;0.80;;;;;;;;;;5007387;28;20518;-78
2022/12/28 13:59:15;;;;;;;2.67;0.80;;;;;;;;;;5007544;28;20354;-78
2022/12/28 14:02:21;;;;;;;0.83;0.50;;;;;;;;;;5007533;28;20217;-77
2022/12/28 14:05:28;;;;;;;2.43;0.80;;;;;;;;;;5006253;28;20225;-78
2022/12/28 14:08:35;;;;;;;0.70;0.53;;;;;;;;;;5017400;28;20178;-77
2022/12/28 14:11:41;;;;;;;3.10;0.90;;;;;;;;;;5017309;28;20213;-77
2022/12/28 14:14:46;;;;;;;1.10;0.53;;;;;;;;;;5016616;28;20174;-78
2022/12/28 14:17:51;;;;;;;1.73;0.70;;;;;;;;;;4994261;28;20182;-77
2022/12/28 14:20:57;;;;;;;1.37;0.70;;;;;;;;;;5005180;28;20177;-77
2022/12/28 14:24:04;;;;;;;2.00;0.77;;;;;;;;;;5004357;28;20185;-78
2022/12/28 14:27:08;;;;;;;2.43;0.83;;;;;;;;;;5003896;28;20181;-77
2022/12/28 14:30:29;;;;;;;1.77;0.70;;;;;;;;;;5015661;28;20174;-77
2022/12/28 14:33:36;;;;;;;1.53;0.80;;;;;;;;;;5014607;28;20178;-77
2022/12/28 14:36:47;;;;;;;2.63;0.80;;;;;;;;;;5003129;28;20177;-77
2022/12/28 14:39:58;;;;;;;1.83;0.97;;;;;;;;;;5014829;28;20625;-77
2022/12/28 14:43:17;;;;;;;4.13;1.20;;;;;;;;;;4992151;28;20209;-77
2022/12/28 14:46:32;;;;;;;2.13;0.80;;;;;;;;;;5015004;28;20178;-78
2022/12/28 14:49:44;;;;;;;2.03;0.80;;;;;;;;;;5003618;28;20177;-77
2022/12/28 14:52:49;;;;;;;2.23;0.80;;;;;;;;;;4992223;28;20217;-77
2022/12/28 14:56:07;;;;;;;2.97;1.00;;;;;;;;;;5003776;28;20189;-77
2022/12/28 14:59:19;;;;;;;1.60;0.67;;;;;;;;;;5003241;28;20185;-77
2022/12/28 15:02:31;;;;;;;3.03;0.90;;;;;;;;;;5015761;28;20209;-77
2022/12/28 15:05:39;;;;;;;0.90;0.83;;;;;;;;;;5013864;28;20225;-77
2022/12/28 15:08:46;;;;;;;1.77;1.00;;;;;;;;;;5003272;28;20190;-77
2022/12/28 15:12:15;;;;;;;2.50;0.80;;;;;;;;;;5015478;28;20562;-78
2022/12/28 15:15:20;;;;;;;4.77;1.30;;;;;;;;;;4992827;28;20173;-78
2022/12/28 15:18:26;;;;;;;2.90;1.20;;;;;;;;;;4995764;28;20211;-77
2022/12/28 15:21:31;;;;;;;1.30;0.73;;;;;;;;;;5019258;28;20217;-78
2022/12/28 15:24:35;;;;;;;0.90;0.63;;;;;;;;;;4996123;28;20209;-77
2022/12/28 15:27:39;;;;;;;3.47;1.10;;;;;;;;;;5007166;28;20673;-78
2022/12/28 15:30:43;;;;;;;1.53;0.93;;;;;;;;;;4995492;28;20657;-77
2022/12/28 15:33:48;;;;;;;2.73;0.90;;;;;;;;;;5018457;28;20185;-77
2022/12/28 15:36:52;;;;;;;2.00;0.90;;;;;;;;;;5018512;28;20174;-76
2022/12/28 15:39:57;;;;;;;1.70;1.00;;;;;;;;;;5018361;28;20178;-77
2022/12/28 15:43:01;;;;;;;1.17;0.80;;;;;;;;;;5006638;28;20221;-77
2022/12/28 15:46:05;;;;;;;2.23;1.10;;;;;;;;;;5006280;28;20209;-77
2022/12/28 15:49:11;;;;;;;2.53;0.87;;;;;;;;;;5017927;28;20215;-77
2022/12/28 15:52:16;;;;;;;2.10;0.93;;;;;;;;;;5018342;28;20693;-78
2022/12/28 15:55:20;;;;;;;1.17;0.90;;;;;;;;;;5006307;28;20181;-77
2022/12/28 15:58:24;;;;;;;2.60;0.90;;;;;;;;;;5018028;28;20177;-77
2022/12/28 16:01:29;;;;;;;1.63;0.80;;;;;;;;;;4994622;28;20629;-78
2022/12/28 16:04:33;;;;;;;1.47;0.90;;;;;;;;;;5016770;28;20205;-77
2022/12/28 16:07:38;;;;;;;2.30;1.10;;;;;;;;;;5016763;28;20628;-77
2022/12/28 16:10:42;;;;;;;2.53;0.97;;;;;;;;;;5016735;28;20174;-77
2022/12/28 16:13:55;;;;;;;4.07;0.90;;;;;;;;;;5005149;28;20629;-77
2022/12/28 16:17:00;;;;;;;1.87;1.03;;;;;;;;;;5016806;28;20178;-77
2022/12/28 16:20:05;;;;;;;2.13;1.00;;;;;;;;;;5017426;28;20178;-77
2022/12/28 16:23:09;;;;;;;1.80;1.10;;;;;;;;;;4993271;28;20213;-77
2022/12/28 16:26:13;;;;;;;2.00;1.03;;;;;;;;;;5003914;28;20205;-77
2022/12/28 16:29:17;;;;;;;1.87;0.90;;;;;;;;;;5004138;28;20174;-77
2022/12/28 16:32:22;;;;;;;1.90;1.00;;;;;;;;;;5004461;28;20696;-77
2022/12/28 16:35:28;;;;;;;1.50;0.90;;;;;;;;;;5004387;28;20181;-77
2022/12/28 16:38:32;;;;;;;1.60;1.00;;;;;;;;;;5003945;28;20514;-77
2022/12/28 16:41:36;;;;;;;1.07;0.90;;;;;;;;;;5016297;28;20233;-77
2022/12/28 16:44:41;;;;;;;2.37;0.83;;;;;;;;;;5015380;28;20177;-77
2022/12/28 16:47:45;;;;;;;2.93;0.80;;;;;;;;;;5004002;28;20186;-77
2022/12/28 16:50:57;;;;;;;1.53;0.90;;;;;;;;;;4993538;28;20177;-77
2022/12/28 16:54:01;;;;;;;2.07;1.23;;;;;;;;;;4994119;28;20189;-78
2022/12/28 16:57:04;;;;;;;1.80;1.00;;;;;;;;;;5004127;28;20181;-77
2022/12/28 17:00:10;;;;;;;2.33;1.37;;;;;;;;;;5004673;28;20181;-77
2022/12/28 17:03:13;;;;;;;1.93;1.20;;;;;;;;;;5015105;28;20217;-78
2022/12/28 17:06:18;;;;;;;2.80;1.60;;;;;;;;;;5003643;28;20225;-78
2022/12/28 17:09:22;;;;;;;2.30;1.50;;;;;;;;;;5003642;28;20197;-78
2022/12/28 17:12:26;;;;;;;2.67;1.43;;;;;;;;;;5016132;28;20216;-78
2022/12/28 17:15:30;;;;;;;2.70;1.40;;;;;;;;;;5016569;28;20181;-78
2022/12/28 17:18:34;;;;;;;4.30;2.60;;;;;;;;;;5015637;28;20524;-77
2022/12/28 17:21:38;;;;;;;424.70;241.87;;;;;;;;;;5017010;28;20213;-79
2022/12/28 17:24:43;;;;;;;361.83;210.13;;;;;;;;;;5006570;28;20180;-78
2022/12/28 17:27:47;;;;;;;282.00;143.30;;;;;;;;;;5018967;28;20188;-78
2022/12/28 17:31:05;;;;;;;5.30;3.73;;;;;;;;;;5017301;28;20184;-78
2022/12/28 17:34:09;;;;;;;3.43;1.60;;;;;;;;;;4993201;28;20519;-77
2022/12/28 17:37:13;;;;;;;2.10;1.20;;;;;;;;;;5004245;28;20182;-78
2022/12/28 17:40:18;;;;;;;2.47;1.30;;;;;;;;;;4993035;28;20185;-78
2022/12/28 17:43:22;;;;;;;2.77;1.23;;;;;;;;;;5018472;28;20185;-77
2022/12/28 17:46:29;;;;;;;3.27;1.40;;;;;;;;;;5018290;28;20211;-78
2022/12/28 17:49:33;;;;;;;1.33;1.23;;;;;;;;;;5018525;28;20182;-78
2022/12/28 17:52:37;;;;;;;2.60;1.73;;;;;;;;;;5016220;28;20217;-77
2022/12/28 17:55:41;;;;;;;5.93;4.50;;;;;;;;;;5002119;28;20193;-75
2022/12/28 17:58:48;;;;;;;3.50;1.80;;;;;;;;;;5014424;28;20197;-75
2022/12/28 18:01:52;;;;;;;2.77;1.80;;;;;;;;;;5002312;28;20216;-76
2022/12/28 18:04:56;;;;;;;4.17;2.40;;;;;;;;;;5002782;28;20209;-78
2022/12/28 18:08:00;;;;;;;2.20;1.40;;;;;;;;;;5003498;28;20686;-78
2022/12/28 18:11:07;;;;;;;3.13;1.53;;;;;;;;;;5014591;28;20208;-78
2022/12/28 18:14:11;;;;;;;2.13;1.20;;;;;;;;;;5003646;28;20651;-78
2022/12/28 18:17:21;;;;;;;3.17;1.67;;;;;;;;;;4992170;28;20181;-77
2022/12/28 18:20:26;;;;;;;2.47;1.63;;;;;;;;;;4992783;28;20522;-78
2022/12/28 18:23:30;;;;;;;1.67;1.13;;;;;;;;;;5003478;28;20181;-78
2022/12/28 18:26:34;;;;;;;2.10;1.70;;;;;;;;;;4992554;28;20213;-78
2022/12/28 18:29:38;;;;;;;1.30;1.17;;;;;;;;;;5015709;28;20189;-78
2022/12/28 18:32:43;;;;;;;4.77;2.13;;;;;;;;;;5003685;28;20217;-78
2022/12/28 18:35:47;;;;;;;3.30;2.23;;;;;;;;;;5003230;28;20174;-76
2022/12/28 18:38:51;;;;;;;2.03;1.33;;;;;;;;;;5001602;28;20514;-76
2022/12/28 18:41:55;;;;;;;5.90;1.20;;;;;;;;;;5013398;28;20217;-75
2022/12/28 18:44:59;;;;;;;1.93;1.20;;;;;;;;;;5013576;28;20199;-76
2022/12/28 18:48:04;;;;;;;1.53;1.10;;;;;;;;;;5013163;28;20197;-76
2022/12/28 18:51:14;;;;;;;1.83;1.03;;;;;;;;;;5015656;28;20193;-76
2022/12/28 18:54:18;;;;;;;2.13;1.13;;;;;;;;;;5017555;28;20182;-76
2022/12/28 18:57:23;;;;;;;1.87;1.40;;;;;;;;;;5017449;28;20181;-76
2022/12/28 19:00:27;;;;;;;1.97;1.43;;;;;;;;;;4994370;28;20182;-74
2022/12/28 19:03:31;;;;;;;4.57;1.30;;;;;;;;;;5017201;28;20660;-75
2022/12/28 19:06:36;;;;;;;2.50;1.30;;;;;;;;;;5017421;28;20225;-75
2022/12/28 19:10:09;;;;;;;2.50;1.20;;;;;;;;;;5017315;28;20181;-74
2022/12/28 19:13:04;;;;;;;2.37;1.50;;;;;;;;;;5017175;28;20213;-77
2022/12/28 19:16:14;;;;;;;3.83;1.40;;;;;;;;;;5017301;28;20173;-76